Time;durP1;ratioP1;P1;durP2;ratioP2;P2;SDS_P1;SDS_P2;PMS_P1;PMS_P2;Temp;Humidity;BMP_temperature;BMP_pressure;BME280_temperature;BME280_humidity;BME280_pressure;Samples;Min_cycle;Max_cycle;Signal;HPM_P1;HPM_P2
2021/01/03 00:01:07;;;;;;;39.73;29.47;;;4.70;99.90;;;;;;5054607;28;20188;-73
2021/01/03 00:03:32;;;;;;;43.70;31.17;;;4.70;99.90;;;;;;5057620;28;21036;-73
2021/01/03 00:05:58;;;;;;;44.80;29.77;;;4.70;99.90;;;;;;5054126;28;20172;-73
2021/01/03 00:08:23;;;;;;;37.67;29.83;;;4.70;99.90;;;;;;5072588;28;20203;-73
2021/01/03 00:10:49;;;;;;;32.80;25.97;;;4.80;99.90;;;;;;5053948;28;20175;-73
2021/01/03 00:13:14;;;;;;;40.47;27.87;;;4.70;99.90;;;;;;5054044;28;20594;-74
2021/01/03 00:15:40;;;;;;;37.70;28.60;;;4.80;99.90;;;;;;5071671;28;20180;-73
2021/01/03 00:18:06;;;;;;;40.07;29.93;;;4.80;99.90;;;;;;5074159;28;20260;-73
2021/01/03 00:20:31;;;;;;;33.37;24.70;;;4.70;99.90;;;;;;5054278;28;20715;-73
2021/01/03 00:22:57;;;;;;;35.07;27.77;;;4.80;99.90;;;;;;5087445;28;20182;-74
2021/01/03 00:25:25;;;;;;;32.20;25.13;;;4.80;99.90;;;;;;5071224;28;20191;-73
2021/01/03 00:27:52;;;;;;;37.53;28.47;;;4.80;99.90;;;;;;5073779;28;20212;-73
2021/01/03 00:30:20;;;;;;;30.77;24.17;;;4.80;99.90;;;;;;5053738;28;20814;-73
2021/01/03 00:32:46;;;;;;;32.40;24.20;;;4.80;99.90;;;;;;5071352;28;20463;-74
2021/01/03 00:35:15;;;;;;;30.57;24.70;;;4.80;99.90;;;;;;5052312;28;20869;-73
2021/01/03 00:37:42;;;;;;;36.53;25.60;;;4.80;99.90;;;;;;5070559;28;20426;-73
2021/01/03 00:40:11;;;;;;;31.77;24.60;;;4.80;99.90;;;;;;5071603;28;20453;-73
2021/01/03 00:42:36;;;;;;;35.73;26.93;;;4.80;99.90;;;;;;5070802;28;20429;-73
2021/01/03 00:45:04;;;;;;;37.33;27.47;;;4.70;99.90;;;;;;5080671;28;20813;-74
2021/01/03 00:47:30;;;;;;;37.10;27.00;;;4.70;99.90;;;;;;5070545;28;20580;-73
2021/01/03 00:49:55;;;;;;;39.07;28.17;;;4.70;99.90;;;;;;5071031;28;20445;-73
2021/01/03 00:52:21;;;;;;;46.40;32.50;;;4.70;99.90;;;;;;5077948;28;20646;-74
2021/01/03 00:54:46;;;;;;;38.60;28.60;;;4.60;99.90;;;;;;5070774;28;20202;-73
2021/01/03 00:57:12;;;;;;;39.23;30.77;;;4.60;99.90;;;;;;5053481;28;20300;-73
2021/01/03 00:59:37;;;;;;;44.40;32.03;;;4.60;99.90;;;;;;5073322;28;20625;-73
2021/01/03 01:02:03;;;;;;;43.90;31.87;;;4.60;99.90;;;;;;5070378;28;20179;-74
2021/01/03 01:04:28;;;;;;;45.73;30.10;;;4.60;99.90;;;;;;5078654;28;20223;-73
2021/01/03 01:06:54;;;;;;;37.43;29.73;;;4.50;99.90;;;;;;5056655;28;20233;-73
2021/01/03 01:09:19;;;;;;;38.97;31.80;;;4.50;99.90;;;;;;5052642;28;20183;-73
2021/01/03 01:11:45;;;;;;;47.27;33.00;;;4.50;99.90;;;;;;5055232;28;20238;-74
2021/01/03 01:14:10;;;;;;;54.53;33.30;;;4.50;99.90;;;;;;5077788;28;20696;-73
2021/01/03 01:16:36;;;;;;;44.10;31.17;;;4.50;99.90;;;;;;5052853;28;20192;-73
2021/01/03 01:19:04;;;;;;;43.33;31.07;;;4.50;99.90;;;;;;5054395;28;20210;-74
2021/01/03 01:21:29;;;;;;;44.90;31.30;;;4.50;99.90;;;;;;5053581;28;20194;-73
2021/01/03 01:23:55;;;;;;;41.03;30.67;;;4.50;99.90;;;;;;5073638;28;20925;-73
2021/01/03 01:26:21;;;;;;;50.30;34.23;;;4.50;99.90;;;;;;5069923;28;20225;-73
2021/01/03 01:28:46;;;;;;;38.60;28.83;;;4.50;99.90;;;;;;5074824;28;20187;-73
2021/01/03 01:31:12;;;;;;;42.37;31.63;;;4.50;99.90;;;;;;5070648;28;20187;-73
2021/01/03 01:33:37;;;;;;;40.47;29.07;;;4.50;99.90;;;;;;5071261;28;20195;-73
2021/01/03 01:36:05;;;;;;;39.37;29.50;;;4.50;99.90;;;;;;5071046;28;20186;-73
2021/01/03 01:38:30;;;;;;;37.50;28.60;;;4.50;99.90;;;;;;5051514;28;20550;-73
2021/01/03 01:40:57;;;;;;;34.70;27.03;;;4.40;99.90;;;;;;5070412;28;20441;-73
2021/01/03 01:43:23;;;;;;;35.70;26.57;;;4.40;99.90;;;;;;5070147;28;20184;-73
2021/01/03 01:45:48;;;;;;;36.30;27.33;;;4.40;99.90;;;;;;5054328;28;20430;-74
2021/01/03 01:48:18;;;;;;;31.73;25.40;;;4.40;99.90;;;;;;5060660;28;20456;-73
2021/01/03 01:50:47;;;;;;;36.03;25.93;;;4.40;99.90;;;;;;5074507;28;20217;-73
2021/01/03 01:53:24;;;;;;;32.40;26.13;;;4.50;99.90;;;;;;5068984;28;20796;-73
2021/01/03 01:55:59;;;;;;;38.20;27.07;;;4.50;99.90;;;;;;5052259;28;20448;-73
2021/01/03 01:58:49;;;;;;;31.83;24.63;;;4.50;99.90;;;;;;5076788;28;20479;-74
2021/01/03 02:01:25;;;;;;;35.77;26.17;;;4.40;99.90;;;;;;5070524;28;20436;-73
2021/01/03 02:04:00;;;;;;;34.20;26.13;;;4.40;99.90;;;;;;5070068;28;20437;-73
2021/01/03 02:06:32;;;;;;;35.80;26.87;;;4.40;99.90;;;;;;5071432;28;20443;-73
2021/01/03 02:09:07;;;;;;;32.93;24.50;;;4.40;99.90;;;;;;5052123;28;20437;-73
2021/01/03 02:11:32;;;;;;;34.83;24.63;;;4.40;99.90;;;;;;5069228;28;20438;-74
2021/01/03 02:14:01;;;;;;;30.50;22.73;;;4.30;99.90;;;;;;5070605;28;20432;-74
2021/01/03 02:16:36;;;;;;;34.90;25.40;;;4.30;99.90;;;;;;5068800;28;20191;-73
2021/01/03 02:19:03;;;;;;;36.67;26.57;;;4.30;99.90;;;;;;5077872;28;20432;-74
2021/01/03 02:21:49;;;;;;;36.30;26.20;;;4.30;99.90;;;;;;5070406;28;20448;-74
2021/01/03 02:24:40;;;;;;;32.90;24.10;;;4.30;99.90;;;;;;5070095;28;20484;-74
2021/01/03 02:27:16;;;;;;;33.10;25.33;;;4.30;99.90;;;;;;5073950;28;20864;-74
2021/01/03 02:29:45;;;;;;;31.60;25.27;;;4.30;99.90;;;;;;5068275;28;20436;-74
2021/01/03 02:32:11;;;;;;;32.53;24.20;;;4.20;99.90;;;;;;5068647;28;20451;-74
2021/01/03 02:34:42;;;;;;;33.30;23.77;;;4.20;99.90;;;;;;5070029;28;20445;-74
2021/01/03 02:37:16;;;;;;;27.80;22.13;;;4.20;99.90;;;;;;5051710;28;20783;-74
2021/01/03 02:39:48;;;;;;;31.67;22.63;;;4.20;99.90;;;;;;5073619;28;20429;-74
2021/01/03 02:42:23;;;;;;;29.63;23.57;;;4.20;99.90;;;;;;5073732;28;20471;-74
2021/01/03 02:44:48;;;;;;;32.43;23.07;;;4.20;99.90;;;;;;5074402;28;20496;-74
2021/01/03 02:47:14;;;;;;;31.93;23.40;;;4.20;99.90;;;;;;5070665;28;20465;-74
2021/01/03 02:49:40;;;;;;;31.43;23.93;;;4.20;99.90;;;;;;5068607;28;20191;-74
2021/01/03 02:52:12;;;;;;;30.83;23.47;;;4.10;99.90;;;;;;5070057;28;20274;-74
2021/01/03 02:54:38;;;;;;;30.47;23.03;;;4.20;99.90;;;;;;5069558;28;20183;-74
2021/01/03 02:57:04;;;;;;;30.70;23.97;;;4.10;99.90;;;;;;5069439;28;20976;-74
2021/01/03 02:59:29;;;;;;;28.77;21.60;;;4.10;99.90;;;;;;5069844;28;20195;-74
2021/01/03 03:01:55;;;;;;;28.40;20.87;;;4.10;99.90;;;;;;5069318;28;20263;-74
2021/01/03 03:04:20;;;;;;;31.00;23.10;;;4.10;99.90;;;;;;5071621;28;20187;-74
2021/01/03 03:06:46;;;;;;;31.03;23.67;;;4.10;99.90;;;;;;5075424;28;20207;-74
2021/01/03 03:09:11;;;;;;;30.83;23.80;;;4.10;99.90;;;;;;5068761;28;20729;-74
2021/01/03 03:11:37;;;;;;;32.00;23.43;;;4.10;99.90;;;;;;5075389;28;20277;-74
2021/01/03 03:14:03;;;;;;;30.90;22.63;;;4.10;99.90;;;;;;5069099;28;20726;-74
2021/01/03 03:16:28;;;;;;;32.07;23.07;;;4.10;99.90;;;;;;5050766;28;20232;-74
2021/01/03 03:18:54;;;;;;;29.10;22.83;;;4.10;99.90;;;;;;5071964;28;20191;-73
2021/01/03 03:21:20;;;;;;;30.93;23.90;;;4.10;99.90;;;;;;5055153;28;20224;-73
2021/01/03 03:23:46;;;;;;;29.07;22.10;;;4.10;99.90;;;;;;5067960;28;20223;-73
2021/01/03 03:26:11;;;;;;;38.77;24.80;;;4.10;99.90;;;;;;5051122;28;20448;-73
2021/01/03 03:28:37;;;;;;;25.93;21.50;;;4.10;99.90;;;;;;5073171;28;20468;-73
2021/01/03 03:31:03;;;;;;;27.43;22.70;;;4.10;99.90;;;;;;5061912;28;20271;-73
2021/01/03 03:33:29;;;;;;;30.60;23.40;;;4.10;99.90;;;;;;5069015;28;20198;-74
2021/01/03 03:35:54;;;;;;;27.10;21.83;;;4.10;99.90;;;;;;5057478;28;20433;-73
2021/01/03 03:38:21;;;;;;;25.50;19.53;;;4.10;99.90;;;;;;5068167;28;20675;-73
2021/01/03 03:40:47;;;;;;;27.33;20.50;;;4.10;99.90;;;;;;5069222;28;20198;-73
2021/01/03 03:43:12;;;;;;;27.73;19.70;;;4.10;99.90;;;;;;5069040;28;20878;-73
2021/01/03 03:45:38;;;;;;;25.70;20.87;;;4.10;99.90;;;;;;5069244;28;20506;-74
2021/01/03 03:48:04;;;;;;;28.47;21.27;;;4.10;99.90;;;;;;5054592;28;20386;-73
2021/01/03 03:50:30;;;;;;;30.13;22.30;;;4.10;99.90;;;;;;5055345;28;20329;-73
2021/01/03 03:52:56;;;;;;;33.50;22.90;;;4.10;99.90;;;;;;5083007;28;20524;-73
2021/01/03 03:55:21;;;;;;;27.87;21.33;;;4.10;99.90;;;;;;5073306;28;20267;-74
2021/01/03 03:57:47;;;;;;;35.43;23.40;;;4.10;99.90;;;;;;5071951;28;20275;-74
2021/01/03 04:00:16;;;;;;;29.40;21.50;;;4.10;99.90;;;;;;5071831;28;20734;-74
2021/01/03 04:02:45;;;;;;;27.50;21.53;;;4.10;99.90;;;;;;5071801;28;20988;-74
2021/01/03 04:05:13;;;;;;;28.50;20.90;;;4.10;99.90;;;;;;5071665;28;21021;-74
2021/01/03 04:07:39;;;;;;;28.73;21.63;;;4.10;99.90;;;;;;5056777;28;20465;-74
2021/01/03 04:10:05;;;;;;;27.07;20.00;;;4.10;99.90;;;;;;5052143;28;20441;-74
2021/01/03 04:12:31;;;;;;;25.73;20.60;;;4.10;99.90;;;;;;5072757;28;20553;-74
2021/01/03 04:14:56;;;;;;;27.70;21.03;;;4.10;99.90;;;;;;5071340;28;20445;-74
2021/01/03 04:17:22;;;;;;;27.47;21.43;;;4.10;99.90;;;;;;5058174;28;20228;-74
2021/01/03 04:19:47;;;;;;;26.17;20.83;;;4.10;99.90;;;;;;5075664;28;20286;-74
2021/01/03 04:22:13;;;;;;;27.93;21.50;;;4.10;99.90;;;;;;5078694;28;20414;-74
2021/01/03 04:24:38;;;;;;;26.80;21.53;;;4.00;99.90;;;;;;5054664;28;20274;-74
2021/01/03 04:27:07;;;;;;;29.47;21.40;;;4.10;99.90;;;;;;5072795;28;20278;-74
2021/01/03 04:29:33;;;;;;;24.20;20.20;;;4.10;99.90;;;;;;5057221;28;20187;-74
2021/01/03 04:32:03;;;;;;;26.47;20.10;;;4.10;99.90;;;;;;5070436;28;20464;-74
2021/01/03 04:34:29;;;;;;;28.57;19.20;;;4.00;99.90;;;;;;5073649;28;20517;-74
2021/01/03 04:36:56;;;;;;;23.60;19.30;;;4.00;99.90;;;;;;5072648;28;20434;-74
2021/01/03 04:39:23;;;;;;;26.87;20.20;;;4.00;99.90;;;;;;5056034;28;20464;-74
2021/01/03 04:41:55;;;;;;;22.63;17.63;;;4.10;99.90;;;;;;5071847;28;20442;-74
2021/01/03 04:44:33;;;;;;;21.80;17.90;;;4.10;99.90;;;;;;5053458;28;20434;-74
2021/01/03 04:47:14;;;;;;;22.80;17.43;;;4.10;99.90;;;;;;5052837;28;20538;-74
2021/01/03 04:49:45;;;;;;;24.40;19.83;;;4.10;99.90;;;;;;5073773;28;21014;-74
2021/01/03 04:52:40;;;;;;;25.70;19.67;;;4.10;99.90;;;;;;5061166;28;20797;-74
2021/01/03 04:55:09;;;;;;;22.80;18.93;;;4.10;99.90;;;;;;5052536;28;20434;-74
2021/01/03 04:58:05;;;;;;;23.27;18.73;;;4.00;99.90;;;;;;5069568;28;20435;-74
2021/01/03 05:00:35;;;;;;;24.43;17.40;;;4.10;99.90;;;;;;5055692;28;20449;-74
2021/01/03 05:03:21;;;;;;;24.87;18.77;;;4.00;99.90;;;;;;5052849;28;20546;-74
2021/01/03 05:05:48;;;;;;;25.47;18.20;;;4.10;99.90;;;;;;5075799;28;20931;-74
2021/01/03 05:08:50;;;;;;;22.47;17.77;;;4.10;99.90;;;;;;5070233;28;20479;-74
2021/01/03 05:11:22;;;;;;;24.10;18.90;;;4.10;99.90;;;;;;5055146;28;20487;-74
2021/01/03 05:14:23;;;;;;;23.53;17.80;;;4.10;99.90;;;;;;5070591;28;20840;-74
2021/01/03 05:16:54;;;;;;;24.17;19.10;;;4.10;99.90;;;;;;5069303;28;20444;-74
2021/01/03 05:19:19;;;;;;;20.10;17.60;;;4.10;99.90;;;;;;5071855;28;20566;-74
2021/01/03 05:21:51;;;;;;;24.23;17.73;;;4.10;99.90;;;;;;5075798;28;20436;-74
2021/01/03 05:24:17;;;;;;;21.63;18.70;;;4.10;99.90;;;;;;5074642;28;20202;-74
2021/01/03 05:26:44;;;;;;;21.10;17.33;;;4.10;99.90;;;;;;5073860;28;20507;-74
2021/01/03 05:29:20;;;;;;;23.87;17.90;;;4.10;99.90;;;;;;5070448;28;20542;-74
2021/01/03 05:32:25;;;;;;;22.90;17.83;;;4.10;99.90;;;;;;5053792;28;20534;-74
2021/01/03 05:34:50;;;;;;;25.47;19.63;;;4.10;99.90;;;;;;5052115;28;20870;-74
2021/01/03 05:37:24;;;;;;;22.80;16.80;;;4.10;99.90;;;;;;5073990;28;20452;-74
2021/01/03 05:39:50;;;;;;;23.37;17.73;;;4.10;99.90;;;;;;5071165;28;20183;-74
2021/01/03 05:42:18;;;;;;;19.40;16.63;;;4.10;99.90;;;;;;5052527;28;20542;-74
2021/01/03 05:45:08;;;;;;;21.80;16.27;;;4.20;99.90;;;;;;5070932;28;20448;-74
2021/01/03 05:47:52;;;;;;;23.77;18.87;;;4.20;99.90;;;;;;5069164;28;20527;-74
2021/01/03 05:50:24;;;;;;;20.30;16.27;;;4.20;99.90;;;;;;5068888;28;20445;-74
2021/01/03 05:52:54;;;;;;;24.67;17.43;;;4.20;99.90;;;;;;5074642;28;20438;-74
2021/01/03 05:55:22;;;;;;;20.60;17.17;;;4.20;99.90;;;;;;5068543;28;20511;-74
2021/01/03 05:57:48;;;;;;;21.00;17.53;;;4.20;99.90;;;;;;5070155;28;20996;-74
2021/01/03 06:00:24;;;;;;;23.23;17.30;;;4.20;99.90;;;;;;5069147;28;20495;-74
2021/01/03 06:02:51;;;;;;;20.87;17.07;;;4.20;99.90;;;;;;5071445;28;20464;-74
2021/01/03 06:05:22;;;;;;;24.70;19.70;;;4.20;99.90;;;;;;5073792;28;20434;-74
2021/01/03 06:08:31;;;;;;;20.60;17.10;;;4.20;99.90;;;;;;5053472;28;20797;-74
2021/01/03 06:11:09;;;;;;;22.00;16.23;;;4.20;99.90;;;;;;5068594;28;20464;-74
2021/01/03 06:13:46;;;;;;;21.43;16.67;;;4.20;99.90;;;;;;5069880;28;20566;-74
2021/01/03 06:16:11;;;;;;;21.13;16.30;;;4.20;99.90;;;;;;5071292;28;20872;-74
2021/01/03 06:18:47;;;;;;;26.73;18.00;;;4.20;99.90;;;;;;5072779;28;20452;-74
2021/01/03 06:21:16;;;;;;;22.43;16.90;;;4.20;99.90;;;;;;5057942;28;20186;-74
2021/01/03 06:24:10;;;;;;;22.73;17.27;;;4.20;99.90;;;;;;5069569;28;20941;-74
2021/01/03 06:26:50;;;;;;;25.33;17.57;;;4.20;99.90;;;;;;5055968;28;20565;-74
2021/01/03 06:29:35;;;;;;;24.33;17.00;;;4.10;99.90;;;;;;5051272;28;20442;-74
2021/01/03 06:32:39;;;;;;;20.13;15.30;;;4.10;99.90;;;;;;5069163;28;20844;-74
2021/01/03 06:35:14;;;;;;;18.77;15.37;;;4.10;99.90;;;;;;5072574;28;20437;-74
2021/01/03 06:37:49;;;;;;;18.13;14.80;;;4.20;99.90;;;;;;5053395;28;20421;-74
2021/01/03 06:40:55;;;;;;;18.43;13.80;;;4.20;99.90;;;;;;5069038;28;20471;-74
2021/01/03 06:43:40;;;;;;;17.27;13.90;;;4.10;99.90;;;;;;5048865;28;20574;-74
2021/01/03 06:46:42;;;;;;;18.23;13.80;;;4.10;99.90;;;;;;5068207;28;20500;-74
2021/01/03 06:49:37;;;;;;;15.60;13.07;;;4.10;99.90;;;;;;5056395;28;20453;-74
2021/01/03 06:52:27;;;;;;;19.00;13.47;;;4.20;99.90;;;;;;5069728;28;20436;-74
2021/01/03 06:55:15;;;;;;;16.47;12.90;;;4.20;99.90;;;;;;5069888;28;20422;-74
2021/01/03 06:58:18;;;;;;;16.27;13.20;;;4.20;99.90;;;;;;5053979;28;20843;-74
2021/01/03 07:01:13;;;;;;;19.90;14.00;;;4.20;99.90;;;;;;5068706;28;20432;-74
2021/01/03 07:03:39;;;;;;;15.43;13.20;;;4.20;99.90;;;;;;5060126;28;20534;-74
2021/01/03 07:06:08;;;;;;;17.23;12.80;;;4.20;99.90;;;;;;5070071;28;20525;-74
2021/01/03 07:08:44;;;;;;;14.20;12.57;;;4.20;99.90;;;;;;5068776;28;20720;-74
2021/01/03 07:11:36;;;;;;;13.20;11.40;;;4.20;99.90;;;;;;5068707;28;20433;-74
2021/01/03 07:14:04;;;;;;;17.00;11.10;;;4.20;99.90;;;;;;5069298;28;20436;-74
2021/01/03 07:16:47;;;;;;;15.87;11.53;;;4.20;99.90;;;;;;5074675;28;20448;-74
2021/01/03 07:19:23;;;;;;;14.30;11.70;;;4.20;99.90;;;;;;5072468;28;20452;-74
2021/01/03 07:21:49;;;;;;;12.70;9.83;;;4.20;99.90;;;;;;5051405;28;21047;-74
2021/01/03 07:24:29;;;;;;;14.80;10.90;;;4.20;99.90;;;;;;5073181;28;20446;-74
2021/01/03 07:27:24;;;;;;;12.60;10.50;;;4.20;99.90;;;;;;5054197;28;20204;-74
2021/01/03 07:29:56;;;;;;;11.00;9.83;;;4.20;99.90;;;;;;5073158;28;20441;-74
2021/01/03 07:33:05;;;;;;;11.77;10.57;;;4.20;99.90;;;;;;5062879;28;20475;-74
2021/01/03 07:35:37;;;;;;;12.80;10.17;;;4.20;99.90;;;;;;5038876;28;20480;-74
2021/01/03 07:38:23;;;;;;;12.63;10.97;;;4.20;99.90;;;;;;5057025;28;20884;-74
2021/01/03 07:40:56;;;;;;;14.40;9.90;;;4.20;99.90;;;;;;5055325;28;20468;-74
2021/01/03 07:43:24;;;;;;;11.07;9.70;;;4.20;99.90;;;;;;5071915;28;20940;-74
2021/01/03 07:45:50;;;;;;;12.23;10.20;;;4.20;99.90;;;;;;5053822;28;20790;-74
2021/01/03 07:48:40;;;;;;;10.40;9.37;;;4.20;99.90;;;;;;5054653;28;20478;-74
2021/01/03 07:51:32;;;;;;;11.37;10.20;;;4.20;99.90;;;;;;5065542;28;20535;-74
2021/01/03 07:53:58;;;;;;;10.80;9.47;;;4.20;99.90;;;;;;5063139;28;20579;-74
2021/01/03 07:56:27;;;;;;;12.20;10.90;;;4.20;99.90;;;;;;5054253;28;20532;-74
2021/01/03 07:58:54;;;;;;;11.93;10.53;;;4.20;99.90;;;;;;5053816;28;20183;-74
2021/01/03 08:01:24;;;;;;;12.03;10.40;;;4.20;99.90;;;;;;5072357;28;20844;-74
2021/01/03 08:03:49;;;;;;;11.13;9.93;;;4.20;99.90;;;;;;5053348;28;20474;-74
2021/01/03 08:06:15;;;;;;;11.93;9.23;;;4.20;99.90;;;;;;5073595;28;20922;-74
2021/01/03 08:08:41;;;;;;;14.40;11.83;;;4.20;99.90;;;;;;5054035;28;20699;-74
2021/01/03 08:11:35;;;;;;;13.30;10.73;;;4.20;99.90;;;;;;5070149;28;20509;-74
2021/01/03 08:14:07;;;;;;;12.67;11.40;;;4.30;99.90;;;;;;5055187;28;20441;-74
2021/01/03 08:16:33;;;;;;;11.30;10.20;;;4.30;99.90;;;;;;5072903;28;20433;-73
2021/01/03 08:19:05;;;;;;;11.80;10.60;;;4.30;99.90;;;;;;5074621;28;20444;-73
2021/01/03 08:21:33;;;;;;;10.60;9.43;;;4.20;99.90;;;;;;5077495;28;20803;-73
2021/01/03 08:24:05;;;;;;;14.27;10.43;;;4.20;99.90;;;;;;5072483;28;20434;-74
2021/01/03 08:26:37;;;;;;;10.57;9.47;;;4.20;99.90;;;;;;5070716;28;20812;-73
2021/01/03 08:29:36;;;;;;;14.10;11.70;;;4.20;99.90;;;;;;5074478;28;20459;-73
2021/01/03 08:32:09;;;;;;;13.00;10.93;;;4.20;99.90;;;;;;5054905;28;20503;-73
2021/01/03 08:34:38;;;;;;;11.67;9.87;;;4.30;99.90;;;;;;5069344;28;20946;-73
2021/01/03 08:37:23;;;;;;;11.47;10.33;;;4.30;99.90;;;;;;5079416;28;20508;-73
2021/01/03 08:39:50;;;;;;;12.13;10.73;;;4.30;99.90;;;;;;5077180;28;20435;-73
2021/01/03 08:42:29;;;;;;;13.37;10.33;;;4.30;99.90;;;;;;5075328;28;20993;-73
2021/01/03 08:44:58;;;;;;;11.30;10.20;;;4.20;99.90;;;;;;5055322;28;20826;-73
2021/01/03 08:47:32;;;;;;;13.53;10.30;;;4.30;99.90;;;;;;5073189;28;20461;-73
2021/01/03 08:50:05;;;;;;;12.27;10.37;;;4.30;99.90;;;;;;5074946;28;20441;-73
2021/01/03 08:52:31;;;;;;;11.77;10.50;;;4.30;99.90;;;;;;5073353;28;20976;-73
2021/01/03 08:55:14;;;;;;;14.93;11.27;;;4.30;99.90;;;;;;5071527;28;20441;-73
2021/01/03 08:57:42;;;;;;;10.77;9.63;;;4.30;99.90;;;;;;5070627;28;20187;-73
2021/01/03 09:00:19;;;;;;;11.30;9.87;;;4.30;99.90;;;;;;5071616;28;20487;-73
2021/01/03 09:02:46;;;;;;;12.43;11.13;;;4.30;99.90;;;;;;5072163;28;20955;-73
2021/01/03 09:05:16;;;;;;;13.23;10.53;;;4.30;99.90;;;;;;5073437;28;20436;-73
2021/01/03 09:07:43;;;;;;;12.27;10.87;;;4.30;99.90;;;;;;5070091;28;20496;-73
2021/01/03 09:10:19;;;;;;;11.70;10.40;;;4.30;99.90;;;;;;5071142;28;20444;-73
2021/01/03 09:12:45;;;;;;;14.70;10.60;;;4.40;99.90;;;;;;5070925;28;20801;-73
2021/01/03 09:15:18;;;;;;;11.37;10.27;;;4.40;99.90;;;;;;5071353;28;20441;-73
2021/01/03 09:17:44;;;;;;;13.40;10.97;;;4.40;99.90;;;;;;5081029;28;20444;-73
2021/01/03 09:20:13;;;;;;;11.37;10.20;;;4.40;99.90;;;;;;5079522;28;20456;-73
2021/01/03 09:22:42;;;;;;;13.00;11.70;;;4.40;99.90;;;;;;5078034;28;20484;-73
2021/01/03 09:25:15;;;;;;;12.07;10.93;;;4.50;99.90;;;;;;5070022;28;20452;-73
2021/01/03 09:27:41;;;;;;;12.77;11.50;;;4.50;99.90;;;;;;5068599;28;20453;-73
2021/01/03 09:30:19;;;;;;;12.33;11.10;;;4.50;99.90;;;;;;5071467;28;20452;-73
2021/01/03 09:32:46;;;;;;;10.60;9.57;;;4.50;99.90;;;;;;5071271;28;20874;-73
2021/01/03 09:35:31;;;;;;;12.53;11.23;;;4.50;99.90;;;;;;5073252;28;20433;-73
2021/01/03 09:38:22;;;;;;;11.90;10.63;;;4.50;99.90;;;;;;5052842;28;20433;-73
2021/01/03 09:41:23;;;;;;;11.57;10.17;;;4.40;99.90;;;;;;5071722;28;20451;-73
2021/01/03 09:44:21;;;;;;;11.60;10.40;;;4.40;99.90;;;;;;5053697;28;20871;-73
2021/01/03 09:47:10;;;;;;;11.67;10.57;;;4.40;99.90;;;;;;5051164;28;21119;-73
2021/01/03 09:49:35;;;;;;;10.57;9.57;;;4.50;99.90;;;;;;5072977;28;20957;-73
2021/01/03 09:52:38;;;;;;;9.67;8.80;;;4.50;99.90;;;;;;5077647;28;20414;-73
2021/01/03 09:55:03;;;;;;;10.43;9.43;;;4.50;99.90;;;;;;5064638;28;20550;-73
2021/01/03 09:57:34;;;;;;;10.00;9.10;;;4.50;99.90;;;;;;5052139;28;20448;-73
2021/01/03 10:00:00;;;;;;;10.90;9.80;;;4.50;99.90;;;;;;5075071;28;20684;-73
2021/01/03 10:02:27;;;;;;;10.23;9.20;;;4.50;99.90;;;;;;5070051;28;20441;-73
2021/01/03 10:04:53;;;;;;;10.60;9.70;;;4.60;99.90;;;;;;5052112;28;20446;-73
2021/01/03 10:07:21;;;;;;;10.83;9.80;;;4.60;99.90;;;;;;5050909;28;20460;-73
2021/01/03 10:10:00;;;;;;;10.07;9.00;;;4.60;99.90;;;;;;5050414;28;20442;-73
2021/01/03 10:12:33;;;;;;;10.50;9.50;;;4.60;99.90;;;;;;5068928;28;20449;-73
2021/01/03 10:15:24;;;;;;;9.40;8.60;;;4.60;99.90;;;;;;5069860;28;20433;-73
2021/01/03 10:18:17;;;;;;;9.40;8.50;;;4.60;99.90;;;;;;5074611;28;20460;-73
2021/01/03 10:20:50;;;;;;;8.90;8.10;;;4.60;99.90;;;;;;5045813;28;20781;-73
2021/01/03 10:23:40;;;;;;;10.00;9.00;;;4.60;99.90;;;;;;5069432;28;20440;-73
2021/01/03 10:26:22;;;;;;;10.30;9.30;;;4.60;99.90;;;;;;5070666;28;20433;-73
2021/01/03 10:28:47;;;;;;;9.70;8.70;;;4.60;99.90;;;;;;5050881;28;20462;-73
2021/01/03 10:31:13;;;;;;;10.33;9.20;;;4.70;99.90;;;;;;5051515;28;20429;-73
2021/01/03 10:33:39;;;;;;;9.00;8.20;;;4.70;99.90;;;;;;5068896;28;20834;-73
2021/01/03 10:36:05;;;;;;;10.00;9.00;;;4.70;99.90;;;;;;5055691;28;20183;-73
2021/01/03 10:38:30;;;;;;;8.87;8.03;;;4.70;99.90;;;;;;5069096;28;20194;-74
2021/01/03 10:40:56;;;;;;;9.20;8.40;;;4.70;99.90;;;;;;5070572;28;20432;-73
2021/01/03 10:43:21;;;;;;;9.50;8.60;;;4.70;99.90;;;;;;5053311;28;20570;-73
2021/01/03 10:45:47;;;;;;;8.60;7.90;;;4.70;99.90;;;;;;5069326;28;20203;-74
2021/01/03 10:48:13;;;;;;;9.43;8.33;;;4.70;99.90;;;;;;5049991;28;20250;-73
2021/01/03 10:50:39;;;;;;;9.50;8.60;;;4.70;99.90;;;;;;5075347;28;20598;-73
2021/01/03 10:53:04;;;;;;;9.00;8.10;;;4.70;99.90;;;;;;5071703;28;20450;-73
2021/01/03 10:55:30;;;;;;;10.13;8.53;;;4.70;99.90;;;;;;5070085;28;20195;-73
2021/01/03 10:57:57;;;;;;;8.67;7.73;;;4.70;99.90;;;;;;5072184;28;20187;-73
2021/01/03 11:00:23;;;;;;;8.37;7.57;;;4.80;99.90;;;;;;5058109;28;20182;-73
2021/01/03 11:02:49;;;;;;;8.63;7.83;;;4.80;99.90;;;;;;5074598;28;20448;-73
2021/01/03 11:05:17;;;;;;;8.80;8.00;;;4.80;99.90;;;;;;5056105;28;20447;-73
2021/01/03 11:07:42;;;;;;;7.73;7.03;;;4.80;99.90;;;;;;5073332;28;20218;-73
2021/01/03 11:10:09;;;;;;;8.10;7.30;;;4.80;99.90;;;;;;5074392;28;20434;-74
2021/01/03 11:12:35;;;;;;;8.40;7.00;;;4.80;99.90;;;;;;5054692;28;20560;-73
2021/01/03 11:15:01;;;;;;;7.80;7.10;;;4.80;99.90;;;;;;5054117;28;20506;-73
2021/01/03 11:17:26;;;;;;;8.80;8.00;;;4.80;99.90;;;;;;5073394;28;20241;-73
2021/01/03 11:19:52;;;;;;;7.57;6.87;;;4.70;99.90;;;;;;5074950;28;20937;-73
2021/01/03 11:22:18;;;;;;;10.23;9.10;;;4.70;99.90;;;;;;5075479;28;20176;-73
2021/01/03 11:24:44;;;;;;;8.87;7.97;;;4.70;99.90;;;;;;5056085;28;20398;-73
2021/01/03 11:27:16;;;;;;;8.97;8.10;;;4.70;99.90;;;;;;5078074;28;20202;-73
2021/01/03 11:29:41;;;;;;;9.63;8.63;;;4.70;99.90;;;;;;5072750;28;20478;-73
2021/01/03 11:32:13;;;;;;;8.63;7.80;;;4.70;99.90;;;;;;5073276;28;20445;-73
2021/01/03 11:34:39;;;;;;;7.90;7.10;;;4.70;99.90;;;;;;5073883;28;20790;-73
2021/01/03 11:37:09;;;;;;;9.33;7.90;;;4.80;99.90;;;;;;5061497;28;20532;-73
2021/01/03 11:39:35;;;;;;;8.70;7.90;;;4.70;99.90;;;;;;5054806;28;20434;-73
2021/01/03 11:42:05;;;;;;;9.30;8.40;;;4.70;99.90;;;;;;5073268;28;20429;-73
2021/01/03 11:44:30;;;;;;;9.23;7.43;;;4.70;99.90;;;;;;5073855;28;20441;-73
2021/01/03 11:47:01;;;;;;;7.20;6.50;;;4.70;99.90;;;;;;5070872;28;21075;-73
2021/01/03 11:49:27;;;;;;;7.70;6.77;;;4.70;99.90;;;;;;5077770;28;20719;-73
2021/01/03 11:51:52;;;;;;;7.33;6.63;;;4.70;99.90;;;;;;5077503;28;20431;-73
2021/01/03 11:54:19;;;;;;;7.47;6.77;;;4.70;99.90;;;;;;5056274;28;20429;-73
2021/01/03 11:56:45;;;;;;;8.30;7.40;;;4.70;99.90;;;;;;5072193;28;21014;-73
2021/01/03 11:59:11;;;;;;;7.70;6.40;;;4.80;99.90;;;;;;5072725;28;20433;-73
2021/01/03 12:01:36;;;;;;;7.80;6.27;;;4.80;99.90;;;;;;5071720;28;20441;-73
2021/01/03 12:04:02;;;;;;;6.53;5.90;;;4.80;99.90;;;;;;5072998;28;20182;-73
2021/01/03 12:06:28;;;;;;;6.37;5.70;;;4.80;99.90;;;;;;5061327;28;20528;-74
2021/01/03 12:08:53;;;;;;;6.90;6.20;;;4.80;99.90;;;;;;5070994;28;20522;-73
2021/01/03 12:11:21;;;;;;;7.73;7.03;;;4.80;99.90;;;;;;5075267;28;20187;-73
2021/01/03 12:13:49;;;;;;;7.53;6.83;;;4.90;99.90;;;;;;5052964;28;20684;-73
2021/01/03 12:16:21;;;;;;;7.10;6.40;;;4.80;99.90;;;;;;5083248;28;20862;-73
2021/01/03 12:18:48;;;;;;;6.77;6.07;;;4.80;99.90;;;;;;5071907;28;20446;-73
2021/01/03 12:21:21;;;;;;;9.07;6.30;;;4.90;99.90;;;;;;5071870;28;20429;-73
2021/01/03 12:23:47;;;;;;;6.63;5.97;;;4.90;99.90;;;;;;5072843;28;20872;-73
2021/01/03 12:26:13;;;;;;;7.43;6.63;;;4.90;99.90;;;;;;5073135;28;20472;-73
2021/01/03 12:28:38;;;;;;;6.40;5.80;;;4.90;99.90;;;;;;5071838;28;20211;-73
2021/01/03 12:31:04;;;;;;;8.27;5.80;;;4.90;99.90;;;;;;5071080;28;20199;-73
2021/01/03 12:33:29;;;;;;;7.00;6.13;;;5.00;99.90;;;;;;5071966;28;20195;-73
2021/01/03 12:35:55;;;;;;;10.73;9.67;;;5.00;99.90;;;;;;5078163;28;20191;-73
2021/01/03 12:38:20;;;;;;;7.40;6.47;;;5.00;99.90;;;;;;5071549;28;20187;-73
2021/01/03 12:40:46;;;;;;;7.60;6.80;;;5.00;99.90;;;;;;5071922;28;20629;-73
2021/01/03 12:43:11;;;;;;;6.70;6.10;;;5.00;99.90;;;;;;5071424;28;20196;-73
2021/01/03 12:45:37;;;;;;;8.93;6.13;;;5.00;99.90;;;;;;5071808;28;20191;-73
2021/01/03 12:48:02;;;;;;;8.60;6.50;;;5.00;99.90;;;;;;5072983;28;20222;-73
2021/01/03 12:50:28;;;;;;;7.00;6.33;;;5.00;99.90;;;;;;5060310;28;20191;-73
2021/01/03 12:52:53;;;;;;;7.17;6.20;;;5.00;99.90;;;;;;5059711;28;20191;-73
2021/01/03 12:55:19;;;;;;;6.90;6.20;;;5.00;99.90;;;;;;5057045;28;20675;-73
2021/01/03 12:57:44;;;;;;;6.20;5.60;;;5.00;99.90;;;;;;5071549;28;20195;-73
2021/01/03 13:00:11;;;;;;;7.67;6.70;;;5.00;99.90;;;;;;5071825;28;20182;-73
2021/01/03 13:02:36;;;;;;;8.27;6.50;;;5.00;99.90;;;;;;5071331;28;20227;-73
2021/01/03 13:05:02;;;;;;;7.57;6.50;;;5.00;99.90;;;;;;5075849;28;20475;-73